Time;durP1;ratioP1;P1;durP2;ratioP2;P2;SDS_P1;SDS_P2;PMS_P1;PMS_P2;Temp;Humidity;BMP_temperature;BMP_pressure;BME280_temperature;BME280_humidity;BME280_pressure;Samples;Min_cycle;Max_cycle;Signal;HPM_P1;HPM_P2
2024/01/03 00:00:30;;;;;;;16.90;2.55;;;9.20;99.90;;;;;;5064112;28;20611;-49
2024/01/03 00:02:56;;;;;;;5.85;1.80;;;9.20;99.90;;;;;;5064292;28;20189;-50
2024/01/03 00:05:24;;;;;;;12.82;2.40;;;9.10;99.90;;;;;;5062093;28;20174;-47
2024/01/03 00:07:51;;;;;;;10.48;2.30;;;9.10;99.90;;;;;;5063809;28;20643;-48
2024/01/03 00:10:35;;;;;;;12.00;2.17;;;9.00;99.90;;;;;;5064104;28;20273;-45
2024/01/03 00:13:04;;;;;;;9.40;2.30;;;9.00;99.90;;;;;;5062492;28;20246;-43
2024/01/03 00:16:12;;;;;;;15.57;2.50;;;9.00;99.90;;;;;;5064021;28;20194;-45
2024/01/03 00:18:45;;;;;;;8.65;2.38;;;9.00;99.90;;;;;;5052676;28;20229;-50
2024/01/03 00:21:14;;;;;;;12.40;2.35;;;9.00;99.90;;;;;;5063272;28;20872;-46
2024/01/03 00:23:53;;;;;;;11.77;2.38;;;9.00;99.90;;;;;;5063704;28;20643;-44
2024/01/03 00:26:19;;;;;;;5.32;1.85;;;9.00;99.90;;;;;;5062669;28;20202;-49
2024/01/03 00:28:47;;;;;;;8.55;2.20;;;9.00;99.90;;;;;;5061118;28;20247;-45
2024/01/03 00:31:43;;;;;;;11.52;2.72;;;9.00;99.90;;;;;;5062358;28;20293;-47
2024/01/03 00:34:42;;;;;;;12.82;2.65;;;9.00;99.90;;;;;;5060086;28;20305;-48
2024/01/03 00:37:27;;;;;;;16.02;2.05;;;9.00;99.90;;;;;;5055425;28;21027;-46
2024/01/03 00:39:55;;;;;;;14.38;2.95;;;8.90;99.90;;;;;;5061936;28;20271;-49
2024/01/03 00:42:21;;;;;;;12.55;2.38;;;8.90;99.90;;;;;;5062441;28;20269;-46
2024/01/03 00:44:47;;;;;;;12.35;2.40;;;8.90;99.90;;;;;;5060330;28;20331;-45
2024/01/03 00:47:14;;;;;;;10.18;2.03;;;8.90;99.90;;;;;;5061462;28;20297;-47
2024/01/03 00:49:40;;;;;;;15.52;2.33;;;8.90;99.90;;;;;;5063843;28;20218;-46
2024/01/03 00:52:08;;;;;;;14.82;2.42;;;8.80;99.90;;;;;;5062211;28;20233;-44
2024/01/03 00:54:35;;;;;;;15.57;2.30;;;8.80;99.90;;;;;;5062888;28;20662;-46
2024/01/03 00:57:02;;;;;;;11.13;2.47;;;8.80;99.90;;;;;;5063842;28;20220;-45
2024/01/03 00:59:28;;;;;;;13.30;2.75;;;8.80;99.90;;;;;;5077755;28;20189;-47
2024/01/03 01:01:56;;;;;;;13.32;2.45;;;8.80;99.90;;;;;;5057094;28;20988;-48
2024/01/03 01:04:22;;;;;;;18.80;2.67;;;8.70;99.90;;;;;;5063134;28;20239;-48
2024/01/03 01:06:48;;;;;;;16.02;2.45;;;8.70;99.90;;;;;;5062973;28;20199;-50
2024/01/03 01:09:14;;;;;;;10.98;2.22;;;8.70;99.90;;;;;;5061816;28;20654;-46
2024/01/03 01:11:40;;;;;;;14.25;2.90;;;8.70;99.90;;;;;;5059658;28;20210;-43
2024/01/03 01:14:06;;;;;;;20.30;3.22;;;8.70;99.90;;;;;;5062529;28;20672;-44
2024/01/03 01:16:32;;;;;;;21.60;3.40;;;8.70;99.90;;;;;;5061764;28;20225;-46
2024/01/03 01:18:58;;;;;;;12.25;2.38;;;8.70;99.90;;;;;;5060704;28;20178;-44
2024/01/03 01:21:24;;;;;;;12.55;2.22;;;8.70;99.90;;;;;;5062717;28;20186;-45
2024/01/03 01:23:49;;;;;;;17.52;2.42;;;8.60;99.90;;;;;;5045603;28;20190;-47
2024/01/03 01:26:15;;;;;;;13.13;2.90;;;8.60;99.90;;;;;;5061377;28;20255;-46
2024/01/03 01:28:43;;;;;;;12.85;2.55;;;8.60;99.90;;;;;;5061113;28;20198;-50
2024/01/03 01:31:09;;;;;;;13.88;2.90;;;8.60;99.90;;;;;;5061855;28;20178;-45
2024/01/03 01:33:34;;;;;;;9.77;2.35;;;8.60;99.90;;;;;;5043658;28;20317;-50
2024/01/03 01:36:01;;;;;;;13.82;2.17;;;8.60;99.90;;;;;;5078122;28;20189;-45
2024/01/03 01:38:27;;;;;;;11.75;2.35;;;8.60;99.90;;;;;;5078227;28;20199;-44
2024/01/03 01:40:52;;;;;;;16.40;2.60;;;8.60;99.90;;;;;;5062286;28;20235;-46
2024/01/03 01:43:18;;;;;;;11.13;2.08;;;8.60;99.90;;;;;;5062815;28;20214;-45
2024/01/03 01:45:47;;;;;;;15.20;2.70;;;8.60;99.90;;;;;;5062080;28;20195;-45
2024/01/03 01:48:15;;;;;;;15.00;2.45;;;8.60;99.90;;;;;;5060563;28;20217;-41
2024/01/03 01:50:41;;;;;;;19.20;2.42;;;8.60;99.90;;;;;;5063179;28;20285;-45
2024/01/03 01:53:08;;;;;;;8.65;1.85;;;8.50;99.90;;;;;;5060955;28;20219;-45
2024/01/03 01:55:37;;;;;;;17.55;3.10;;;8.50;99.90;;;;;;5062252;28;20199;-45
2024/01/03 01:58:05;;;;;;;14.73;2.30;;;8.50;99.90;;;;;;5051325;28;20190;-44
2024/01/03 02:00:31;;;;;;;10.52;2.03;;;8.60;99.90;;;;;;5060011;28;20196;-47
2024/01/03 02:02:57;;;;;;;14.98;2.20;;;8.50;99.90;;;;;;5060674;28;20714;-45
2024/01/03 02:05:23;;;;;;;13.38;2.25;;;8.60;99.90;;;;;;5064599;28;20186;-44
2024/01/03 02:07:49;;;;;;;18.17;2.83;;;8.60;99.90;;;;;;5065258;28;20229;-45
2024/01/03 02:10:15;;;;;;;21.58;3.00;;;8.50;99.90;;;;;;5064964;28;20209;-44
2024/01/03 02:12:41;;;;;;;18.65;2.58;;;8.60;99.90;;;;;;5055131;28;20674;-43
2024/01/03 02:15:07;;;;;;;14.77;2.33;;;8.60;99.90;;;;;;5065302;28;20198;-49
2024/01/03 02:17:38;;;;;;;15.05;2.20;;;8.60;99.90;;;;;;5063988;28;21253;-43
2024/01/03 02:20:04;;;;;;;15.48;2.70;;;8.60;99.90;;;;;;5065332;28;20260;-43
2024/01/03 02:22:31;;;;;;;9.90;2.88;;;8.60;99.90;;;;;;5063433;28;20191;-48
2024/01/03 02:24:57;;;;;;;22.33;3.05;;;8.60;99.90;;;;;;5066431;28;20198;-49
2024/01/03 02:27:23;;;;;;;11.32;2.47;;;8.60;99.90;;;;;;5064297;28;20194;-44
2024/01/03 02:29:49;;;;;;;18.80;3.28;;;8.60;99.90;;;;;;5065269;28;20273;-45
2024/01/03 02:32:15;;;;;;;16.67;2.65;;;8.60;99.90;;;;;;5065672;28;20210;-48
2024/01/03 02:34:40;;;;;;;21.33;3.45;;;8.60;99.90;;;;;;5064432;28;20187;-47
2024/01/03 02:37:09;;;;;;;13.07;2.80;;;8.70;99.90;;;;;;5065763;28;20187;-45
2024/01/03 02:39:35;;;;;;;16.30;2.70;;;8.70;99.90;;;;;;5066785;28;20756;-47
2024/01/03 02:42:01;;;;;;;26.75;3.30;;;8.70;99.90;;;;;;5064929;28;20190;-47
2024/01/03 02:44:27;;;;;;;22.05;2.80;;;8.80;99.90;;;;;;5063961;28;20570;-44
2024/01/03 02:46:57;;;;;;;15.52;2.95;;;8.80;99.90;;;;;;5065253;28;20226;-50
2024/01/03 02:49:23;;;;;;;15.15;2.47;;;8.90;99.90;;;;;;5063292;28;20290;-47
2024/01/03 02:51:49;;;;;;;7.32;1.88;;;8.80;99.90;;;;;;5065007;28;20360;-46
2024/01/03 02:54:15;;;;;;;16.02;2.17;;;8.90;99.90;;;;;;5063242;28;20194;-47
2024/01/03 02:56:41;;;;;;;18.05;2.90;;;8.90;99.90;;;;;;5064725;28;20485;-47
2024/01/03 02:59:07;;;;;;;10.07;1.98;;;8.90;99.90;;;;;;5066147;28;20642;-46
2024/01/03 03:01:33;;;;;;;15.15;2.92;;;8.90;99.90;;;;;;5062434;28;20214;-50
2024/01/03 03:03:59;;;;;;;16.85;2.58;;;8.90;99.90;;;;;;5065150;28;20190;-50
2024/01/03 03:06:26;;;;;;;16.05;2.33;;;9.00;99.90;;;;;;5066474;28;20581;-45
2024/01/03 03:08:52;;;;;;;9.60;2.22;;;9.00;99.90;;;;;;5061963;28;20627;-46
2024/01/03 03:11:18;;;;;;;7.22;1.98;;;9.00;99.90;;;;;;5063708;28;20481;-48
2024/01/03 03:13:44;;;;;;;17.48;2.88;;;9.10;99.90;;;;;;5065580;28;20233;-45
2024/01/03 03:16:10;;;;;;;16.73;2.50;;;9.20;99.90;;;;;;5064303;28;20671;-44
2024/01/03 03:18:36;;;;;;;16.90;2.58;;;9.20;99.90;;;;;;5062906;28;20187;-50
2024/01/03 03:21:01;;;;;;;12.50;1.83;;;9.20;99.90;;;;;;5064828;28;20190;-44
2024/01/03 03:23:27;;;;;;;17.35;2.55;;;9.20;99.90;;;;;;5063445;28;20198;-46
2024/01/03 03:25:53;;;;;;;15.52;2.50;;;9.30;99.90;;;;;;5065170;28;20244;-42
2024/01/03 03:28:21;;;;;;;9.90;2.30;;;9.30;99.90;;;;;;5046372;28;20198;-49
2024/01/03 03:30:47;;;;;;;9.20;2.40;;;9.30;99.90;;;;;;5064511;28;20442;-50
2024/01/03 03:33:13;;;;;;;13.43;2.60;;;9.40;99.90;;;;;;5065703;28;20210;-47
2024/01/03 03:35:39;;;;;;;9.80;2.05;;;9.40;99.90;;;;;;5063590;28;20182;-46
2024/01/03 03:38:05;;;;;;;16.83;2.75;;;9.50;99.90;;;;;;5063047;28;20194;-42
2024/01/03 03:40:31;;;;;;;14.90;2.42;;;9.50;99.90;;;;;;5065583;28;20178;-44
2024/01/03 03:42:57;;;;;;;4.47;1.67;;;9.50;99.90;;;;;;5063390;28;20198;-47
2024/01/03 03:45:23;;;;;;;12.52;2.47;;;9.50;99.90;;;;;;5063763;28;20198;-44
2024/01/03 03:47:49;;;;;;;10.10;2.50;;;9.60;99.90;;;;;;5065887;28;20252;-51
2024/01/03 03:50:14;;;;;;;12.55;2.22;;;9.60;99.90;;;;;;5063439;28;20275;-43
2024/01/03 03:52:40;;;;;;;13.45;2.33;;;9.60;99.90;;;;;;5063038;28;20221;-47
2024/01/03 03:55:07;;;;;;;7.65;1.77;;;9.60;99.90;;;;;;5064645;28;20182;-47
2024/01/03 03:57:34;;;;;;;8.43;1.60;;;9.60;99.90;;;;;;5063395;28;20191;-47
2024/01/03 04:00:03;;;;;;;13.30;2.20;;;9.70;99.90;;;;;;5079828;28;20956;-49
2024/01/03 04:02:38;;;;;;;12.90;2.42;;;9.70;99.90;;;;;;5063243;28;20195;-47
2024/01/03 04:05:04;;;;;;;13.38;2.20;;;9.70;99.90;;;;;;5062360;28;20194;-48
2024/01/03 04:07:31;;;;;;;12.25;2.75;;;9.70;99.90;;;;;;5064507;28;20233;-45
2024/01/03 04:09:57;;;;;;;10.52;2.40;;;9.70;99.90;;;;;;5061583;28;20191;-45
2024/01/03 04:12:23;;;;;;;16.90;2.25;;;9.70;99.90;;;;;;5062794;28;20245;-50
2024/01/03 04:14:49;;;;;;;4.63;1.42;;;9.70;99.90;;;;;;5065235;28;20229;-45
2024/01/03 04:17:16;;;;;;;11.38;2.05;;;9.70;99.90;;;;;;5061764;28;20205;-50
2024/01/03 04:19:41;;;;;;;9.52;2.47;;;9.60;99.90;;;;;;5062712;28;20560;-46
2024/01/03 04:22:08;;;;;;;11.50;2.03;;;9.60;99.90;;;;;;5062088;28;20197;-46
2024/01/03 04:24:33;;;;;;;11.52;2.22;;;9.70;99.90;;;;;;5063502;28;20198;-46
2024/01/03 04:26:59;;;;;;;16.15;2.28;;;9.60;99.90;;;;;;5064297;28;20190;-48
2024/01/03 04:29:25;;;;;;;10.95;2.30;;;9.60;99.90;;;;;;5063168;28;20186;-45
2024/01/03 04:31:51;;;;;;;12.50;2.00;;;9.60;99.90;;;;;;5063167;28;20218;-49
2024/01/03 04:34:17;;;;;;;7.22;2.00;;;9.60;99.90;;;;;;5065138;28;20194;-45
2024/01/03 04:36:43;;;;;;;7.05;1.70;;;9.70;99.90;;;;;;5063105;28;20193;-43
2024/01/03 04:39:09;;;;;;;13.95;2.63;;;9.70;99.90;;;;;;5062639;28;20591;-48
2024/01/03 04:41:35;;;;;;;11.45;2.40;;;9.70;99.90;;;;;;5063084;28;20721;-44
2024/01/03 04:44:01;;;;;;;13.50;2.17;;;9.70;99.90;;;;;;5061178;28;20272;-48
2024/01/03 04:46:27;;;;;;;10.35;1.73;;;9.70;99.90;;;;;;5063277;28;20228;-46
2024/01/03 04:48:53;;;;;;;10.77;2.53;;;9.70;99.90;;;;;;5060913;28;20222;-49
2024/01/03 04:51:19;;;;;;;6.50;1.70;;;9.70;99.90;;;;;;5063572;28;20662;-44
2024/01/03 04:53:45;;;;;;;5.18;1.27;;;9.70;99.90;;;;;;5063081;28;20301;-50
2024/01/03 04:56:11;;;;;;;4.57;1.60;;;9.70;99.90;;;;;;5045073;28;20186;-42
2024/01/03 04:58:37;;;;;;;5.38;1.10;;;9.70;99.90;;;;;;5063112;28;20182;-45
2024/01/03 05:01:03;;;;;;;5.65;1.63;;;9.70;99.90;;;;;;5064839;28;20313;-43
2024/01/03 05:03:28;;;;;;;11.63;2.28;;;9.70;99.90;;;;;;5061948;28;20201;-51
2024/01/03 05:05:55;;;;;;;6.55;2.08;;;9.70;99.90;;;;;;5061997;28;20542;-43
2024/01/03 05:08:20;;;;;;;11.00;2.50;;;9.60;99.90;;;;;;5064112;28;20198;-50
2024/01/03 05:10:46;;;;;;;7.72;1.63;;;9.70;99.90;;;;;;5060221;28;20182;-46
2024/01/03 05:13:12;;;;;;;13.43;2.72;;;9.70;99.90;;;;;;5062454;28;20218;-50
2024/01/03 05:15:38;;;;;;;9.63;2.28;;;9.70;99.90;;;;;;5062616;28;20204;-49
2024/01/03 05:18:04;;;;;;;11.07;2.70;;;9.70;99.90;;;;;;5062044;28;20190;-44
2024/01/03 05:20:30;;;;;;;11.23;2.60;;;9.70;99.90;;;;;;5061041;28;20179;-45
2024/01/03 05:22:56;;;;;;;14.02;2.40;;;9.80;99.90;;;;;;5061146;28;20197;-42
2024/01/03 05:25:21;;;;;;;8.35;2.38;;;9.80;99.90;;;;;;5062121;28;20198;-51
2024/01/03 05:27:47;;;;;;;10.88;2.38;;;9.80;99.90;;;;;;5063482;28;20674;-50
2024/01/03 05:30:14;;;;;;;10.30;2.28;;;9.80;99.90;;;;;;5061146;28;20191;-47
2024/01/03 05:32:39;;;;;;;10.88;2.53;;;9.80;99.90;;;;;;5062837;28;20211;-49
2024/01/03 05:35:06;;;;;;;13.00;2.20;;;9.80;99.90;;;;;;5064822;28;20182;-52
2024/01/03 05:37:32;;;;;;;10.02;2.30;;;9.80;99.90;;;;;;5062362;28;20289;-43
2024/01/03 05:39:58;;;;;;;10.60;2.53;;;9.80;99.90;;;;;;5079955;28;20603;-51
2024/01/03 05:42:23;;;;;;;8.82;1.95;;;9.80;99.90;;;;;;5067814;28;20258;-42
2024/01/03 05:44:49;;;;;;;5.30;1.75;;;9.80;99.90;;;;;;5065098;28;20190;-52
2024/01/03 05:47:15;;;;;;;8.18;2.08;;;9.70;99.90;;;;;;5066050;28;20248;-54
2024/01/03 05:49:41;;;;;;;7.30;1.60;;;9.70;99.90;;;;;;5066981;28;20222;-48
2024/01/03 05:52:07;;;;;;;5.35;2.05;;;9.60;99.90;;;;;;5064878;28;21937;-50
2024/01/03 05:54:33;;;;;;;10.77;2.25;;;9.50;99.90;;;;;;5066549;28;20232;-45
2024/01/03 05:57:00;;;;;;;5.38;1.70;;;9.50;99.90;;;;;;5063580;28;20186;-45
2024/01/03 05:59:27;;;;;;;8.75;2.30;;;9.40;99.90;;;;;;5066321;28;20664;-48
2024/01/03 06:01:52;;;;;;;8.55;2.30;;;9.40;99.90;;;;;;5066624;28;20190;-44
2024/01/03 06:04:18;;;;;;;12.70;2.72;;;9.40;99.90;;;;;;5065979;28;20715;-54
2024/01/03 06:06:44;;;;;;;14.90;2.72;;;9.30;99.90;;;;;;5066396;28;20230;-44
2024/01/03 06:09:11;;;;;;;17.88;3.15;;;9.30;99.90;;;;;;5064547;28;20636;-53
2024/01/03 06:11:37;;;;;;;25.75;4.20;;;9.30;99.90;;;;;;5064079;28;20195;-50
2024/01/03 06:14:03;;;;;;;28.38;4.35;;;9.30;99.90;;;;;;5066475;28;20618;-49
2024/01/03 06:16:29;;;;;;;23.45;4.03;;;9.40;99.90;;;;;;5065030;28;20191;-42
2024/01/03 06:18:54;;;;;;;20.13;3.80;;;9.40;99.90;;;;;;5066018;28;20193;-53
2024/01/03 06:21:20;;;;;;;20.90;4.03;;;9.50;99.90;;;;;;5065610;28;20744;-49
2024/01/03 06:23:46;;;;;;;29.42;4.13;;;9.50;99.90;;;;;;5066110;28;20314;-50
2024/01/03 06:26:12;;;;;;;19.73;3.58;;;9.60;99.90;;;;;;5065549;28;20653;-46
2024/01/03 06:28:38;;;;;;;15.10;3.38;;;9.60;99.90;;;;;;5065359;28;20190;-49
2024/01/03 06:31:04;;;;;;;18.23;3.78;;;9.70;99.90;;;;;;5063775;28;20301;-44
2024/01/03 06:33:30;;;;;;;29.13;3.83;;;9.70;99.90;;;;;;5065339;28;20206;-46
2024/01/03 06:35:59;;;;;;;24.08;4.15;;;9.70;99.90;;;;;;5066644;28;20217;-47
2024/01/03 06:38:24;;;;;;;20.52;3.90;;;9.70;99.90;;;;;;5064031;28;21157;-49
2024/01/03 06:40:51;;;;;;;22.98;4.32;;;9.80;99.90;;;;;;5063333;28;20186;-50
2024/01/03 06:43:17;;;;;;;24.77;3.60;;;9.80;99.90;;;;;;5066343;28;20738;-47
2024/01/03 06:45:42;;;;;;;28.88;4.30;;;9.80;99.90;;;;;;5046541;28;20210;-48
2024/01/03 06:48:08;;;;;;;18.58;3.30;;;9.80;99.90;;;;;;5064283;28;20194;-48
2024/01/03 06:50:34;;;;;;;27.58;3.58;;;9.80;99.90;;;;;;5061833;28;20226;-47
2024/01/03 06:53:00;;;;;;;20.63;3.35;;;9.80;99.90;;;;;;5064825;28;20214;-50
2024/01/03 06:55:26;;;;;;;25.50;4.32;;;9.90;99.90;;;;;;5065129;28;20180;-47
2024/01/03 06:57:53;;;;;;;23.70;3.22;;;9.90;99.90;;;;;;5065648;28;20202;-45
2024/01/03 07:00:19;;;;;;;26.60;4.28;;;9.90;99.90;;;;;;5064080;28;20194;-42
2024/01/03 07:02:45;;;;;;;27.83;4.38;;;9.90;99.90;;;;;;5065383;28;20229;-51
2024/01/03 07:05:11;;;;;;;21.08;3.90;;;9.90;99.90;;;;;;5063466;28;20205;-48
2024/01/03 07:07:37;;;;;;;16.63;3.20;;;9.90;99.90;;;;;;5064971;28;20631;-46
2024/01/03 07:10:03;;;;;;;23.63;4.25;;;10.00;99.90;;;;;;5065501;28;20198;-47
2024/01/03 07:12:29;;;;;;;17.13;3.20;;;9.90;99.90;;;;;;5063466;28;20222;-50
2024/01/03 07:14:56;;;;;;;14.77;3.13;;;10.00;99.90;;;;;;5063234;28;20191;-50
2024/01/03 07:17:22;;;;;;;25.55;4.18;;;9.90;99.90;;;;;;5064486;28;20774;-44
2024/01/03 07:19:48;;;;;;;31.85;4.28;;;9.90;99.90;;;;;;5062961;28;20210;-51
2024/01/03 07:22:14;;;;;;;26.35;4.53;;;9.90;99.90;;;;;;5063734;28;20187;-53
2024/01/03 07:24:39;;;;;;;29.38;4.43;;;9.90;99.90;;;;;;5064634;28;21153;-51
2024/01/03 07:27:06;;;;;;;28.20;3.97;;;9.80;99.90;;;;;;5064318;28;20714;-52
2024/01/03 07:29:31;;;;;;;20.13;3.55;;;9.80;99.90;;;;;;5063281;28;20192;-44
2024/01/03 07:31:57;;;;;;;27.90;4.57;;;9.80;99.90;;;;;;5063843;28;20663;-48
2024/01/03 07:34:23;;;;;;;20.70;3.90;;;9.80;99.90;;;;;;5063336;28;21025;-50
2024/01/03 07:36:49;;;;;;;16.80;3.95;;;9.80;99.90;;;;;;5063120;28;20593;-49
2024/01/03 07:39:15;;;;;;;26.60;4.20;;;9.80;99.90;;;;;;5062941;28;20272;-44
2024/01/03 07:41:41;;;;;;;21.65;4.18;;;9.80;99.90;;;;;;5063111;28;20203;-52
2024/01/03 07:44:07;;;;;;;17.10;3.30;;;9.80;99.90;;;;;;5065288;28;20239;-48
2024/01/03 07:46:33;;;;;;;17.13;3.85;;;9.80;99.90;;;;;;5063591;28;20194;-54
2024/01/03 07:48:59;;;;;;;23.35;3.35;;;9.80;99.90;;;;;;5062517;28;20215;-47
2024/01/03 07:51:24;;;;;;;17.63;3.47;;;9.80;99.90;;;;;;5080125;28;21609;-50
2024/01/03 07:53:50;;;;;;;22.40;3.72;;;9.80;99.90;;;;;;5064138;28;20222;-54
2024/01/03 07:56:16;;;;;;;20.50;3.47;;;9.80;99.90;;;;;;5063770;28;20206;-50
2024/01/03 07:58:42;;;;;;;14.35;2.90;;;9.80;99.90;;;;;;5063511;28;20239;-51
2024/01/03 08:01:08;;;;;;;18.33;3.28;;;9.80;99.90;;;;;;5064212;28;20182;-48
2024/01/03 08:03:34;;;;;;;13.23;2.70;;;9.80;99.90;;;;;;5064464;28;20359;-48
2024/01/03 08:06:00;;;;;;;16.40;3.05;;;9.80;99.90;;;;;;5062503;28;20209;-48
2024/01/03 08:08:26;;;;;;;24.23;3.90;;;9.80;99.90;;;;;;5063740;28;20202;-47
2024/01/03 08:10:52;;;;;;;17.48;3.65;;;9.80;99.90;;;;;;5063554;28;20236;-49
2024/01/03 08:13:18;;;;;;;21.15;3.33;;;9.80;99.90;;;;;;5061568;28;20979;-48
2024/01/03 08:15:44;;;;;;;22.50;3.42;;;9.80;99.90;;;;;;5063805;28;21287;-48
2024/01/03 08:18:09;;;;;;;16.88;3.60;;;9.80;99.90;;;;;;5062367;28;20288;-47
2024/01/03 08:20:35;;;;;;;24.73;3.20;;;9.80;99.90;;;;;;5062589;28;20211;-50
2024/01/03 08:23:01;;;;;;;20.58;3.72;;;9.80;99.90;;;;;;5062671;28;20213;-52
2024/01/03 08:25:27;;;;;;;18.98;3.45;;;9.90;99.90;;;;;;5061571;28;20199;-47
2024/01/03 08:27:53;;;;;;;22.73;3.50;;;9.90;99.90;;;;;;5062494;28;20206;-53
2024/01/03 08:30:19;;;;;;;21.13;3.38;;;9.90;99.90;;;;;;5062353;28;20275;-49
2024/01/03 08:32:45;;;;;;;20.27;4.07;;;9.90;99.90;;;;;;5063165;28;20227;-48
2024/01/03 08:35:10;;;;;;;18.13;3.28;;;9.90;99.90;;;;;;5058558;28;20186;-48
2024/01/03 08:37:36;;;;;;;14.40;3.10;;;9.90;99.90;;;;;;5063877;28;20670;-46
2024/01/03 08:40:03;;;;;;;24.10;3.65;;;9.90;99.90;;;;;;5045367;28;20521;-51
2024/01/03 08:42:29;;;;;;;15.98;2.97;;;9.90;99.90;;;;;;5061898;28;20637;-46
2024/01/03 08:44:55;;;;;;;23.27;3.42;;;9.90;99.90;;;;;;5060776;28;20194;-48
2024/01/03 08:47:21;;;;;;;21.33;3.25;;;9.90;99.90;;;;;;5062164;28;20217;-50
2024/01/03 08:49:47;;;;;;;19.05;3.10;;;9.90;99.90;;;;;;5063177;28;20250;-49
2024/01/03 08:52:13;;;;;;;20.25;3.28;;;9.90;99.90;;;;;;5062168;28;20300;-46
2024/01/03 08:54:40;;;;;;;17.30;2.83;;;9.90;99.90;;;;;;5062117;28;20658;-46
2024/01/03 08:57:08;;;;;;;24.02;3.33;;;9.90;99.90;;;;;;5062422;28;20190;-47
2024/01/03 08:59:36;;;;;;;11.25;2.05;;;9.90;99.90;;;;;;5061644;28;20622;-44
2024/01/03 09:02:03;;;;;;;16.70;3.45;;;9.80;99.90;;;;;;5062939;28;20194;-45
2024/01/03 09:04:30;;;;;;;19.52;3.13;;;9.80;99.90;;;;;;5062739;28;20194;-47
2024/01/03 09:06:56;;;;;;;16.80;3.33;;;9.80;99.90;;;;;;5062294;28;20642;-45
2024/01/03 09:09:22;;;;;;;13.73;2.70;;;9.80;99.90;;;;;;5062214;28;20179;-49
2024/01/03 09:11:49;;;;;;;22.80;3.45;;;9.80;99.90;;;;;;5060381;28;21091;-46
2024/01/03 09:14:16;;;;;;;22.00;3.33;;;9.90;99.90;;;;;;5062395;28;20269;-47
2024/01/03 09:16:42;;;;;;;20.85;3.40;;;9.90;99.90;;;;;;5064746;28;20269;-48
2024/01/03 09:19:08;;;;;;;17.25;3.45;;;9.90;99.90;;;;;;5066203;28;20832;-51
2024/01/03 09:21:34;;;;;;;14.15;2.85;;;9.90;99.90;;;;;;5055676;28;20186;-46
2024/01/03 09:24:00;;;;;;;18.05;2.88;;;10.00;99.90;;;;;;5065810;28;20194;-49
2024/01/03 09:26:26;;;;;;;15.60;2.70;;;10.00;99.90;;;;;;5081600;28;21300;-54
2024/01/03 09:28:52;;;;;;;19.40;2.90;;;10.10;99.90;;;;;;5067587;28;20343;-52
2024/01/03 09:31:18;;;;;;;18.88;2.90;;;10.10;99.90;;;;;;5065870;28;20693;-50
2024/01/03 09:33:44;;;;;;;19.08;2.95;;;10.20;99.90;;;;;;5066082;28;20214;-50
2024/01/03 09:36:20;;;;;;;12.55;2.78;;;10.20;99.90;;;;;;5067252;28;20182;-50
2024/01/03 09:38:47;;;;;;;16.70;2.88;;;10.30;99.90;;;;;;5065032;28;20190;-47
2024/01/03 09:41:17;;;;;;;18.77;3.20;;;10.20;99.90;;;;;;5065269;28;20301;-53
2024/01/03 09:43:44;;;;;;;16.63;3.10;;;10.30;99.90;;;;;;5066819;28;20189;-51
2024/01/03 09:46:11;;;;;;;16.35;2.95;;;10.30;99.90;;;;;;5079895;28;20297;-52
2024/01/03 09:48:41;;;;;;;13.45;2.90;;;10.30;99.90;;;;;;5064810;28;21302;-48
2024/01/03 09:51:11;;;;;;;15.68;3.08;;;10.30;99.90;;;;;;5066087;28;20195;-52
2024/01/03 09:53:38;;;;;;;17.25;3.10;;;10.30;99.90;;;;;;5064180;28;20219;-45
2024/01/03 09:56:04;;;;;;;12.75;2.83;;;10.20;99.90;;;;;;5063639;28;20190;-47
2024/01/03 09:58:30;;;;;;;13.00;2.80;;;10.20;99.90;;;;;;5064684;28;20224;-52
2024/01/03 10:00:55;;;;;;;17.98;3.20;;;10.20;99.90;;;;;;5065424;28;20179;-46
2024/01/03 10:03:21;;;;;;;13.88;2.50;;;10.30;99.90;;;;;;5063022;28;20190;-53
2024/01/03 10:06:15;;;;;;;18.88;2.28;;;10.30;99.90;;;;;;5064070;28;20248;-50
2024/01/03 10:08:41;;;;;;;12.90;2.42;;;10.30;99.90;;;;;;5065617;28;20269;-49
2024/01/03 10:11:20;;;;;;;12.73;2.20;;;10.30;99.90;;;;;;5064074;28;20214;-50
2024/01/03 10:13:50;;;;;;;17.10;2.75;;;10.30;99.90;;;;;;5065320;28;20307;-49
2024/01/03 10:16:26;;;;;;;14.77;2.53;;;10.40;99.90;;;;;;5065935;28;20236;-49
2024/01/03 10:19:11;;;;;;;9.57;2.13;;;10.40;99.90;;;;;;5064241;28;20186;-49
2024/01/03 10:21:59;;;;;;;12.30;2.50;;;10.40;99.90;;;;;;5063599;28;20246;-47
2024/01/03 10:24:25;;;;;;;17.63;2.53;;;10.50;99.90;;;;;;5064380;28;20569;-49
2024/01/03 10:26:51;;;;;;;17.70;2.35;;;10.50;99.90;;;;;;5064525;28;20201;-53
2024/01/03 10:29:18;;;;;;;9.88;1.92;;;10.60;99.90;;;;;;5063865;28;20554;-49
2024/01/03 10:31:47;;;;;;;10.85;2.88;;;10.60;99.90;;;;;;5062843;28;20198;-47
2024/01/03 10:34:19;;;;;;;11.18;2.60;;;10.60;99.90;;;;;;5064504;28;20181;-52
2024/01/03 10:36:46;;;;;;;11.38;2.67;;;10.60;99.90;;;;;;5063418;28;20210;-45
2024/01/03 10:39:17;;;;;;;18.73;3.40;;;10.60;99.90;;;;;;5063708;28;20663;-45
2024/01/03 10:41:44;;;;;;;13.90;2.45;;;10.50;99.90;;;;;;5065632;28;20610;-57
2024/01/03 10:44:12;;;;;;;18.52;2.50;;;10.50;99.90;;;;;;5064715;28;20599;-51
2024/01/03 10:46:40;;;;;;;13.85;2.90;;;10.40;99.90;;;;;;5063199;28;20216;-49
2024/01/03 10:49:07;;;;;;;13.02;2.75;;;10.30;99.90;;;;;;5062660;28;20422;-48
2024/01/03 10:51:40;;;;;;;7.82;2.75;;;10.20;99.90;;;;;;5065692;28;20187;-48
2024/01/03 10:54:16;;;;;;;15.30;3.85;;;10.10;99.90;;;;;;5062811;28;20229;-46
2024/01/03 10:56:52;;;;;;;12.57;2.97;;;10.00;99.90;;;;;;5064889;28;20267;-44
2024/01/03 10:59:24;;;;;;;12.13;2.90;;;9.90;99.90;;;;;;5081088;28;20204;-45
2024/01/03 11:01:58;;;;;;;14.10;2.60;;;9.90;99.90;;;;;;5063623;28;20273;-49
2024/01/03 11:04:27;;;;;;;10.57;2.70;;;9.80;99.90;;;;;;5064650;28;20621;-50
2024/01/03 11:07:09;;;;;;;16.25;2.50;;;9.80;99.90;;;;;;5064136;28;20186;-49
2024/01/03 11:09:36;;;;;;;19.23;3.10;;;9.90;99.90;;;;;;5063997;28;20187;-49
2024/01/03 11:12:07;;;;;;;16.73;3.10;;;10.00;99.90;;;;;;5062944;28;20304;-45
2024/01/03 11:14:33;;;;;;;16.75;2.97;;;10.00;99.90;;;;;;5063500;28;20439;-53
2024/01/03 11:17:00;;;;;;;13.23;2.67;;;10.10;99.90;;;;;;5081551;28;20501;-53
2024/01/03 11:19:33;;;;;;;18.70;3.40;;;10.20;99.90;;;;;;5062978;28;20194;-50
2024/01/03 11:22:03;;;;;;;23.10;3.03;;;10.40;99.90;;;;;;5063225;28;20235;-48
2024/01/03 11:24:28;;;;;;;15.57;2.35;;;10.40;99.90;;;;;;5064059;28;20206;-49
2024/01/03 11:26:55;;;;;;;20.00;3.35;;;10.60;99.90;;;;;;5064424;28;20532;-50
2024/01/03 11:29:38;;;;;;;10.50;2.67;;;10.70;99.90;;;;;;5063022;28;20262;-51
2024/01/03 11:32:09;;;;;;;15.07;2.72;;;10.80;99.90;;;;;;5062161;28;20230;-51
2024/01/03 11:34:36;;;;;;;19.10;3.95;;;10.90;99.90;;;;;;5065401;28;20182;-51
2024/01/03 11:37:02;;;;;;;21.55;3.13;;;11.00;99.90;;;;;;5061341;28;20195;-51
2024/01/03 11:39:43;;;;;;;16.02;3.83;;;11.10;99.90;;;;;;5063018;28;20514;-50
2024/01/03 11:42:10;;;;;;;20.10;3.63;;;11.20;99.90;;;;;;5065646;28;20186;-49
2024/01/03 11:44:36;;;;;;;22.98;3.22;;;11.30;99.90;;;;;;5062968;28;20277;-47
2024/01/03 11:47:04;;;;;;;20.88;3.00;;;11.40;99.90;;;;;;5063552;28;20232;-49
2024/01/03 11:49:30;;;;;;;19.20;2.97;;;11.40;99.90;;;;;;5063931;28;20582;-48
2024/01/03 11:52:01;;;;;;;20.50;3.03;;;11.50;99.90;;;;;;5062508;28;21242;-51
2024/01/03 11:54:33;;;;;;;19.20;3.00;;;11.50;99.90;;;;;;5050377;28;20190;-51
2024/01/03 11:57:08;;;;;;;18.23;3.72;;;11.50;99.90;;;;;;5063767;28;20191;-46
2024/01/03 11:59:34;;;;;;;16.98;2.70;;;11.50;99.90;;;;;;5062992;28;20186;-46
2024/01/03 12:02:01;;;;;;;14.32;3.10;;;11.50;99.90;;;;;;5062369;28;20205;-48
2024/01/03 12:04:27;;;;;;;18.52;3.22;;;11.50;99.90;;;;;;5062999;28;20256;-49
2024/01/03 12:06:57;;;;;;;17.88;2.47;;;11.40;99.90;;;;;;5065163;28;20205;-53
2024/01/03 12:09:24;;;;;;;15.82;2.85;;;11.40;99.90;;;;;;5077004;28;20556;-45
2024/01/03 12:11:50;;;;;;;17.17;2.80;;;11.40;99.90;;;;;;5062396;28;20655;-48
2024/01/03 12:14:17;;;;;;;15.70;2.97;;;11.30;99.90;;;;;;5061641;28;20189;-47
2024/01/03 12:16:53;;;;;;;25.13;3.33;;;11.30;99.90;;;;;;5063088;28;20182;-49
2024/01/03 12:19:28;;;;;;;20.35;3.78;;;11.20;99.90;;;;;;5063499;28;20193;-52
2024/01/03 12:21:58;;;;;;;20.20;3.85;;;11.10;99.90;;;;;;5077667;28;20198;-50
2024/01/03 12:24:43;;;;;;;14.85;2.90;;;11.10;99.90;;;;;;5064393;28;20285;-55
2024/01/03 12:27:10;;;;;;;20.40;3.65;;;11.10;99.90;;;;;;5060250;28;20202;-53
2024/01/03 12:29:39;;;;;;;16.20;3.67;;;11.10;99.90;;;;;;5079254;28;20189;-45
2024/01/03 12:32:16;;;;;;;20.75;3.70;;;11.10;99.90;;;;;;5062408;28;20210;-49
2024/01/03 12:34:43;;;;;;;13.52;3.17;;;11.20;99.90;;;;;;5062792;28;20229;-50
2024/01/03 12:37:09;;;;;;;18.10;3.00;;;11.20;99.90;;;;;;5062544;28;20178;-50
2024/01/03 12:39:35;;;;;;;15.85;3.00;;;11.20;99.90;;;;;;5061508;28;20275;-44
2024/01/03 12:42:12;;;;;;;23.23;3.85;;;11.20;99.90;;;;;;5062656;28;20182;-52
2024/01/03 12:44:39;;;;;;;20.38;3.88;;;11.10;99.90;;;;;;5046726;28;20269;-51
2024/01/03 12:47:08;;;;;;;17.02;2.88;;;11.10;99.90;;;;;;5062289;28;20186;-49